Latest Weather Observations for Hamilton Island

IDQ60801

Issued at 9:02 am EST Wednesday 18 January 2017 (issued every 30 minutes, with the page automatically refreshed every 10 minutes)

About weather observations | Map of weather stations | Latest weather observations for QLD | Other Formats
Station Details ID: 033106 Name: HAMILTON ISLAND AIRPORT Lat: -20.37 Lon: 148.95 Height: 58.66 m
Data from the previous 72 hours. | See also: Recent months at Hamilton Island
Date/Time
EST
Temp
°C
App
Temp
°C
Dew
Point
°C
Rel
Hum
%
Delta-T
°C
Wind Press
QNH
hPa
Press
MSL
hPa
Rain since
9am
mm
Dir  Spd
km/h
Gust
km/h
Spd
kts
Gust
kts
18/09:00am 28.1 29.9 23.5 76 3.2 SSE 20 30 11 16 1014.5 1014.1 0.6
18/08:30am 27.0 28.3 23.3 80 2.5 SSE 22 30 12 16 1014.6 - 0.6
18/08:18am 27.1 28.9 23.6 81 2.4 SSE 20 26 11 14 1014.6 - 0.6
18/08:00am 27.2 29.1 23.7 81 2.4 S 20 26 11 14 1014.5 - 0.6
18/07:30am 27.6 29.7 23.8 80 2.6 SSE 19 24 10 13 1014.2 - 0.6
18/07:07am 26.2 28.7 23.1 83 2.1 S 15 20 8 11 1014.2 - 0.6
18/07:00am 26.2 28.7 23.1 83 2.1 S 15 20 8 11 1014.0 - 0.6
18/06:30am 25.4 27.5 23.1 87 1.6 SSE 17 20 9 11 1013.6 - 0.6
18/06:09am 25.7 28.6 23.2 86 1.7 SE 13 19 7 10 1013.5 - 0.2
18/06:00am 25.1 27.4 22.8 87 1.6 SE 15 20 8 11 1013.4 1013.0 0.2
18/05:52am 25.3 26.4 23.0 87 1.6 ESE 22 35 12 19 1013.2 - 0.2
18/05:30am 26.4 27.2 22.5 79 2.6 SE 22 28 12 15 1012.8 - 0.2
18/05:00am 26.6 27.0 22.4 78 2.8 SE 24 28 13 15 1012.4 - 0.2
18/04:30am 26.5 27.0 22.6 79 2.6 SE 24 30 13 16 1012.2 - 0.2
18/04:00am 26.5 27.1 22.8 80 2.5 SE 24 26 13 14 1012.0 - 0.2
18/03:30am 26.5 27.0 22.6 79 2.6 SE 24 28 13 15 1011.8 - 0.2
18/03:00am 26.7 26.8 22.5 78 2.8 ESE 26 30 14 16 1011.8 1011.4 0.2
18/02:30am 26.7 27.1 22.5 78 2.8 ESE 24 32 13 17 1012.1 - 0.2
18/02:00am 26.8 26.8 22.4 77 3.0 ESE 26 30 14 16 1012.2 - 0.2
18/01:30am 26.9 26.8 22.3 76 3.1 ESE 26 30 14 16 1012.6 - 0.2
18/01:00am 27.0 26.7 22.6 77 3.0 ESE 28 32 15 17 1013.1 - 0.2
18/12:30am 27.0 28.0 22.8 78 2.9 ESE 22 28 12 15 1013.6 - 0.2
18/12:00am 27.0 27.2 22.8 78 2.9 ESE 26 30 14 16 1013.9 1013.5 0.2
 
Date/Time
EST
Temp
°C
App
Temp
°C
Dew
Point
°C
Rel
Hum
%
Delta-T
°C
Wind Press
QNH
hPa
Press
MSL
hPa
Rain since
9am
mm
Dir  Spd
km/h
Gust
km/h
Spd
kts
Gust
kts
17/11:30pm 27.1 27.1 23.1 79 2.7 ESE 28 33 15 18 1014.2 - 0.2
17/11:00pm 27.1 26.9 22.7 77 3.0 ESE 28 32 15 17 1014.3 - 0.2
17/10:30pm 27.1 27.0 22.9 78 2.9 ESE 28 32 15 17 1014.5 - 0.2
17/10:00pm 27.2 27.6 23.2 79 2.7 ESE 26 32 14 17 1014.4 - 0.2
17/09:30pm 27.2 27.4 22.8 77 3.0 ESE 26 33 14 18 1014.4 - 0.2
17/09:00pm 27.4 26.5 22.1 73 3.6 ESE 30 35 16 19 1014.2 1013.8 0.2
17/08:30pm 27.3 26.8 22.9 77 3.0 ESE 30 33 16 18 1014.0 - 0.2
17/08:00pm 27.5 28.1 23.5 79 2.7 ESE 26 35 14 19 1013.8 - 0.2
17/07:30pm 27.3 27.6 22.9 77 3.0 ESE 26 32 14 17 1013.7 - 0.2
17/07:00pm 27.4 28.1 23.0 77 3.0 ESE 24 32 13 17 1013.5 - 0.2
17/06:30pm 27.6 28.2 22.8 75 3.3 ESE 24 28 13 15 1013.4 - 0.2
17/06:00pm 28.0 27.9 22.2 70 3.9 ESE 26 30 14 16 1013.2 1012.8 0.2
17/05:30pm 28.2 28.4 22.7 72 3.7 ESE 26 32 14 17 1013.0 - 0.2
17/05:00pm 28.3 28.1 22.8 72 3.7 ESE 28 32 15 17 1012.6 - 0.2
17/04:30pm 28.4 27.8 22.6 71 3.9 ESE 30 33 16 18 1012.4 - 0.2
17/04:00pm 28.9 29.0 23.3 72 3.8 ESE 28 32 15 17 1012.4 - 0.2
17/03:30pm 28.9 28.8 22.9 70 4.1 ESE 28 32 15 17 1012.6 - 0.2
17/03:00pm 28.9 28.3 22.6 69 4.3 ESE 30 33 16 18 1012.7 1012.3 0.2
17/02:30pm 28.7 29.1 23.1 71 3.8 ESE 26 32 14 17 1012.9 - 0.2
17/02:00pm 29.3 30.3 23.5 71 4.0 ESE 24 30 13 16 1013.1 - 0.2
17/01:30pm 29.1 29.2 23.3 71 4.0 ESE 28 32 15 17 1013.5 - 0.2
17/01:00pm 29.8 30.0 22.8 66 4.8 ESE 26 30 14 16 1013.8 - 0.2
17/12:30pm 29.8 29.9 23.3 68 4.5 ESE 28 32 15 17 1014.1 - 0.2
17/12:00pm 29.7 30.8 23.6 69 4.2 ESE 24 28 13 15 1014.5 1014.1 0.2
17/11:30am 28.9 29.2 22.9 70 4.1 SE 26 30 14 16 1014.6 - 0.2
17/11:00am 29.4 29.8 23.8 72 3.9 SE 28 32 15 17 1014.8 - 0.2
17/10:30am 29.5 30.2 23.7 71 4.0 ESE 26 30 14 16 1014.9 - 0.2
17/10:00am 28.7 30.5 24.3 77 3.1 ESE 22 26 12 14 1014.9 - 0.0
17/09:30am 27.9 29.0 23.7 78 2.9 ESE 24 28 13 15 1014.7 - 0.0
17/09:00am 27.0 28.3 24.1 84 2.0 ESE 24 30 13 16 1014.7 1014.4 3.6
17/08:38am 26.1 28.1 23.6 86 1.7 E 19 24 10 13 1014.6 - 3.6
17/08:30am 25.5 28.9 23.4 88 1.4 ENE 11 19 6 10 1014.6 - 3.6
17/08:19am 25.0 26.9 23.4 91 1.1 E 19 28 10 15 1014.6 - 3.4
17/08:00am 25.6 26.6 23.5 88 1.4 SE 24 30 13 16 1014.5 - 1.2
17/07:30am 26.9 28.5 22.1 75 3.2 ESE 17 20 9 11 1014.4 - 1.2
17/07:00am 26.3 25.2 22.4 79 2.6 ESE 32 39 17 21 1013.9 - 1.2
17/06:30am 27.1 27.9 23.8 82 2.3 ESE 26 32 14 17 1013.6 - 1.2
17/06:00am 26.8 26.5 23.3 81 2.4 E 30 35 16 19 1013.4 1013.0 1.2
17/05:30am 26.9 27.4 22.7 78 2.8 E 24 30 13 16 1012.9 - 1.2
17/05:00am 26.1 28.6 23.2 84 2.0 ENE 15 19 8 10 1012.6 - 1.2
17/04:30am 26.8 27.6 23.1 80 2.5 E 24 30 13 16 1012.1 - 1.2
17/04:00am 26.1 28.0 23.4 85 1.8 E 19 22 10 12 1012.0 - 1.2
17/03:52am 25.9 27.4 23.0 84 2.0 E 20 26 11 14 1011.9 - 1.2
17/03:30am 25.1 26.3 23.2 89 1.3 ENE 22 28 12 15 1011.8 - 1.2
17/03:15am 25.3 24.2 23.4 89 1.3 ENE 35 48 19 26 1011.7 - 1.0
17/03:08am 26.0 23.7 23.3 85 1.8 ENE 41 48 22 26 1011.4 - 0.2
17/03:00am 26.3 28.5 24.0 87 1.6 E 19 26 10 14 1011.7 1011.3 0.2
17/02:58am 26.3 28.3 24.0 87 1.6 E 20 26 11 14 1011.6 - 0.2
17/02:48am 27.0 29.1 24.1 84 2.0 E 20 30 11 16 1011.6 - 0.0
17/02:30am 27.0 29.2 23.9 83 2.1 E 19 26 10 14 1011.7 - 0.0
17/02:03am 27.0 28.9 23.7 82 2.3 ENE 20 28 11 15 1011.9 - 0.0
17/02:00am 27.0 28.9 23.7 82 2.3 ENE 20 28 11 15 1011.9 - 0.0
17/01:39am 27.0 28.0 23.5 81 2.4 ENE 24 30 13 16 1011.9 - 0.0
17/01:30am 27.0 28.5 23.7 82 2.3 ENE 22 30 12 16 1012.1 - 0.0
17/01:05am 27.1 29.0 23.8 82 2.3 ENE 20 30 11 16 1012.4 - 0.0
17/01:00am 27.2 29.2 23.9 82 2.3 ENE 20 28 11 15 1012.5 - 0.0
17/12:33am 27.2 28.9 24.1 83 2.1 E 22 28 12 15 1012.7 - 0.0
17/12:30am 27.1 28.8 24.0 83 2.1 E 22 28 12 15 1012.7 - 0.0
17/12:00am 27.0 29.2 23.9 83 2.1 E 19 26 10 14 1012.7 1012.3 0.0
 
Date/Time
EST
Temp
°C
App
Temp
°C
Dew
Point
°C
Rel
Hum
%
Delta-T
°C
Wind Press
QNH
hPa
Press
MSL
hPa
Rain since
9am
mm
Dir  Spd
km/h
Gust
km/h
Spd
kts
Gust
kts
16/11:31pm 27.1 28.7 23.8 82 2.3 ENE 22 30 12 16 1013.1 - 0.0
16/11:30pm 27.1 28.7 23.8 82 2.3 ENE 22 30 12 16 1013.1 - 0.0
16/11:01pm 27.2 28.7 23.7 81 2.4 E 22 32 12 17 1013.2 - 0.0
16/11:00pm 27.3 29.0 24.0 82 2.3 E 22 32 12 17 1013.2 - 0.0
16/10:30pm 27.3 28.0 23.7 81 2.5 E 26 32 14 17 1013.1 - 0.0
16/10:02pm 27.4 27.8 23.8 81 2.5 E 28 35 15 19 1012.8 - 0.0
16/10:00pm 27.4 27.7 23.6 80 2.6 E 28 35 15 19 1012.8 - 0.0
16/09:47pm 27.5 28.1 24.1 82 2.4 ENE 28 37 15 20 1012.8 - 0.0
16/09:30pm 27.5 28.3 24.5 84 2.1 E 28 39 15 21 1012.9 - 0.0
16/09:00pm 27.7 28.3 24.1 81 2.5 E 28 33 15 18 1012.5 1012.1 0.0
16/08:30pm 27.5 29.8 24.1 82 2.4 E 19 24 10 13 1012.5 - 0.0
16/08:00pm 27.3 30.0 23.5 80 2.6 E 15 20 8 11 1012.2 - 0.0
16/07:30pm 27.2 28.5 23.4 80 2.6 E 22 30 12 16 1011.9 - 0.0
16/07:00pm 27.0 29.9 24.5 86 1.7 ESE 17 20 9 11 1011.7 - 0.0
16/06:30pm 27.2 29.3 23.7 81 2.4 ESE 19 20 10 11 1011.4 - 0.0
16/06:00pm 27.7 29.5 23.3 77 3.0 E 19 24 10 13 1010.9 1010.5 0.0
16/05:30pm 27.8 29.5 23.0 75 3.3 ESE 19 24 10 13 1010.8 - 0.0
16/05:00pm 27.5 28.6 22.4 73 3.5 ESE 20 30 11 16 1010.6 - 0.0
16/04:30pm 27.8 28.0 23.4 77 3.0 E 28 33 15 18 1010.4 - 0.0
16/04:00pm 29.0 29.4 21.7 64 4.9 ENE 22 28 12 15 1010.2 - 0.0
16/03:30pm 28.7 29.5 23.1 71 3.8 E 24 35 13 19 1010.5 - 0.0
16/03:00pm 29.6 32.8 24.9 76 3.3 E 17 22 9 12 1010.3 1009.9 0.0
16/02:30pm 29.5 31.5 23.0 68 4.5 E 17 22 9 12 1010.5 - 0.0
16/02:19pm 30.0 32.6 23.9 70 4.2 ENE 17 24 9 13 1010.6 - 0.0
16/02:00pm 29.2 31.2 23.9 73 3.7 E 20 26 11 14 1010.6 - 0.0
16/01:37pm 29.3 31.2 24.4 75 3.4 ESE 22 26 12 14 1010.5 - 0.0
16/01:30pm 29.5 31.6 24.1 72 3.8 ESE 20 24 11 13 1010.6 - 0.0
16/01:19pm 28.7 30.5 24.3 77 3.1 E 22 28 12 15 1010.7 - 0.0
16/01:00pm 28.7 31.1 24.3 77 3.1 SE 19 22 10 12 1010.8 - 0.0
16/12:54pm 29.2 31.9 24.1 74 3.5 SE 17 22 9 12 1010.7 - 0.0
16/12:30pm 29.9 33.6 25.2 76 3.3 SE 15 17 8 9 1010.9 - 0.0
16/12:00pm 29.0 32.0 24.6 77 3.1 SE 17 20 9 11 1011.0 1010.6 0.0
16/11:30am 30.1 32.8 23.5 67 4.6 SSE 15 20 8 11 1011.2 - 0.0
16/11:00am 28.8 31.6 23.0 71 4.0 SSE 13 15 7 8 1011.4 - 0.0
16/10:30am 29.0 32.6 23.0 70 4.1 WNW 9 13 5 7 1011.6 - 0.0
16/10:00am 28.8 31.7 23.9 75 3.4 NNW 15 20 8 11 1011.6 - 0.0
16/09:30am 28.1 30.7 23.9 78 2.9 NNW 17 20 9 11 1011.5 - 0.0
16/09:00am 26.8 29.4 23.9 84 2.0 NW 17 20 9 11 1011.5 1011.1 0.6
16/08:30am 27.7 29.9 23.3 77 3.0 NW 17 22 9 12 1011.3 - 0.6
16/08:00am 26.7 30.2 23.6 83 2.1 WNW 11 13 6 7 1011.3 - 0.6
16/07:30am 26.2 27.6 22.9 82 2.2 NW 20 26 11 14 1011.0 - 0.6
16/07:00am 27.7 31.5 24.1 81 2.5 N 11 20 6 11 1010.5 - 0.6
16/06:30am 27.5 30.7 23.7 80 2.6 NE 13 15 7 8 1010.0 - 0.6
16/06:00am 27.0 30.4 24.1 84 2.0 NE 13 15 7 8 1009.7 1009.3 0.6
16/05:30am 26.5 30.3 24.0 86 1.7 NE 11 15 6 8 1009.6 - 0.6
16/05:00am 26.3 29.9 23.8 86 1.7 NE 11 13 6 7 1009.3 - 0.6
16/04:30am 26.5 30.5 23.8 85 1.9 ENE 9 11 5 6 1008.8 - 0.6
16/04:00am 26.6 30.7 23.9 85 1.9 NE 9 11 5 6 1008.8 - 0.6
16/03:30am 26.8 30.5 23.9 84 2.0 NNE 11 15 6 8 1008.6 - 0.6
16/03:00am 26.6 30.3 23.9 85 1.9 NE 11 15 6 8 1008.7 1008.3 0.6
16/02:30am 26.6 31.1 23.9 85 1.9 NE 7 11 4 6 1008.7 - 0.6
16/02:00am 26.6 30.6 23.7 84 2.0 N 9 13 5 7 1008.5 - 0.6
16/01:30am 26.6 29.9 23.9 85 1.9 N 13 17 7 9 1008.7 - 0.6
16/01:00am 26.7 30.5 24.0 85 1.9 N 11 13 6 7 1009.3 - 0.6
16/12:30am 26.8 30.6 24.1 85 1.9 NNW 11 15 6 8 1009.4 - 0.6
16/12:00am 26.8 30.5 23.9 84 2.0 NNW 11 15 6 8 1009.6 1009.2 0.6
 
Date/Time
EST
Temp
°C
App
Temp
°C
Dew
Point
°C
Rel
Hum
%
Delta-T
°C
Wind Press
QNH
hPa
Press
MSL
hPa
Rain since
9am
mm
Dir  Spd
km/h
Gust
km/h
Spd
kts
Gust
kts
15/11:30pm 27.0 29.7 23.5 81 2.4 N 15 19 8 10 1009.8 - 0.6
15/11:00pm 26.9 29.8 23.2 80 2.5 NNE 13 20 7 11 1009.7 - 0.6
15/10:30pm 27.1 29.9 23.6 81 2.4 N 15 19 8 10 1009.6 - 0.6
15/10:00pm 27.0 29.9 23.9 83 2.1 N 15 19 8 10 1009.9 - 0.6
15/09:30pm 27.2 29.4 23.9 82 2.3 N 19 24 10 13 1009.7 - 0.6
15/09:00pm 27.4 29.6 24.0 82 2.4 NNW 19 26 10 14 1009.3 1008.9 0.6
15/08:30pm 27.4 28.7 24.0 82 2.3 NNW 24 32 13 17 1009.0 - 0.6
15/08:00pm 27.5 28.4 23.9 81 2.5 NNW 26 33 14 18 1008.5 - 0.6
15/07:30pm 27.6 28.1 24.0 81 2.5 NNW 28 35 15 19 1008.1 - 0.6
15/07:00pm 27.7 27.7 23.7 79 2.8 NNW 30 37 16 20 1007.7 - 0.6
15/06:30pm 27.8 27.9 23.2 76 3.1 NNW 28 35 15 19 1007.5 - 0.6
15/06:00pm 28.1 27.7 23.7 77 3.0 NNW 32 39 17 21 1007.3 1006.9 0.6
15/05:30pm 28.8 28.8 23.7 74 3.5 NNW 30 35 16 19 1007.0 - 0.6
15/05:00pm 29.0 28.7 23.9 74 3.5 NNW 32 39 17 21 1006.3 - 0.6
15/04:30pm 28.8 28.1 24.1 76 3.3 NNW 35 46 19 25 1006.1 - 0.6
15/04:00pm 29.4 30.1 24.3 74 3.6 NNW 28 35 15 19 1006.2 - 0.6
15/03:30pm 30.3 32.2 24.4 70 4.1 NNW 22 26 12 14 1006.6 - 0.6
15/03:00pm 30.9 33.6 24.1 67 4.8 NNW 17 22 9 12 1006.7 1006.3 0.6
15/02:30pm 30.3 32.0 24.0 69 4.4 NNW 22 28 12 15 1007.2 - 0.6
15/02:00pm 29.8 31.8 24.0 71 4.0 NNW 20 26 11 14 1007.5 - 0.6
15/01:30pm 29.7 31.3 23.9 71 4.0 NNW 22 28 12 15 1008.0 - 0.6
15/01:00pm 29.4 31.4 24.5 75 3.4 NNW 22 30 12 16 1008.4 - 0.6
15/12:30pm 29.1 30.5 24.2 75 3.4 NNW 24 28 13 15 1008.6 - 0.6
15/12:00pm 29.2 30.9 24.7 77 3.2 NW 24 30 13 16 1008.9 1008.5 0.6
15/11:30am 28.7 27.8 23.8 75 3.4 NW 35 44 19 24 1008.9 - 0.4
15/11:06am 28.1 27.7 24.7 82 2.4 NW 35 46 19 25 1009.1 - 0.4
15/11:00am 28.0 27.2 24.6 82 2.4 NNW 37 46 20 25 1009.2 - 0.4
15/10:48am 27.8 26.6 24.6 83 2.2 NNW 39 44 21 24 1009.1 - 0.4
15/10:30am 27.6 26.7 24.4 83 2.2 NNW 37 48 20 26 1009.3 - 0.4
15/10:00am 26.7 27.0 24.9 90 1.3 NNW 32 41 17 22 1009.8 - 0.4
15/09:30am 27.6 27.3 24.2 82 2.4 NNW 33 43 18 23 1009.8 - 0.2

Other Formats:

Comma delimited format used in spreadsheet applications
http://www.bom.gov.au/fwo/IDQ60801/IDQ60801.94368.axf

JavaScript Object Notation format (JSON) in row-major order
http://www.bom.gov.au/fwo/IDQ60801/IDQ60801.94368.json